Airfield :
LOGIN :

Register | Disclaimer

   EN    FR    IT 

 










Legend :    VFR   Marginal VFR   IFR   Intensive IFR   Very Intensive IFR
Visi :
Ceiling :
>= 8 km
>= 3000ft
5 to 8 km
1000 to 3000 ft
1500m to 5 km
500 to 1000 ft
800 to 1500m
200 to 500 ft
< 800m
< 200 ft
Symbols :   Thunderstorms  Fog  Heavy snow  Heavy precipitations  Wind > 20 kt
SIGMETs :     Misc.  Thunderstorms  Icing  Turbulence  Mountain Waves  Volcanic Ashes







- Airport Elevation : 82 ft
- IATA code : QIE
- Download approach charts


LFMI - Istres

CURRENT METAR :
  • 182100Z AUTO 34010KT 310V010 CAVOK 07/00 Q1019 NOSIG

EXPIRED METARs :
  • 182030Z AUTO 32010KT 280V340 CAVOK 07/00 Q1019 NOSIG
  • 182000Z AUTO 33008KT 270V020 CAVOK 08/00 Q1019 BECMG 32017G27KT
  • 181930Z AUTO 35016KT CAVOK 08/01 Q1018 BECMG 32017G27KT
  • 181900Z AUTO 35016KT CAVOK 08/01 Q1019 BECMG 32017G27KT
  • 181830Z AUTO 34016KT CAVOK 08/01 Q1019 BECMG 32017G27KT

TAF TAF LFMI
Valid from the 18 at 21:00 until the 19 at 21:00 UTC


182000Z 1821/1921 34017KT CAVOK
BECMG 1902/1904 34016G26KT
BECMG 1906/1908 34024G36KT
TEMPO 1911/1921 34026G46KT
No reported NOTAMs for that airfield.



MET'MAP, your aeronautical weather chart ! - Copyright ORBIFLY December 2007 - Disclaimer

ORBIFLY MET'MAP TEAM :

Programming & Development : Alexandra Zaïnal
Concept & Development : Baudouin d'Aumeries
Co-Development & Prog : Marc-Olivier Méhu
Technical & hardware support : Manuel Goepfert

Contact : metmap@orbifly.com




SOURCES & CREDITS :

   NOAA